This is the latest recevied weather packets stored in our database for station/object K4WCH. If no packets are shown the sender has not sent any weather packets the latest 10 day(s).
| Time | Temp. | Humidity | Pressure | Rain* | Wind** | Luminosity | Snow |
|---|---|---|---|---|---|---|---|
| 1788098194 | 28.33° C | 84% | 1019.2 hPa | 0 mm | - | 477 W/m² | - |
| 1788097888 | 28.33° C | 84% | 1019.2 hPa | 0 mm | - | 477 W/m² | - |
| 1788097584 | 28.89° C | 83% | 1019.1 hPa | 0 mm | - | 441 W/m² | - |
| 1788097280 | 28.89° C | 83% | 1019.3 hPa | 0 mm | - | 441 W/m² | - |
| 1788096975 | 28.33° C | 83% | 1019.3 hPa | 0 mm | - | 440 W/m² | - |
| 1788096682 | 28.33° C | 85% | 1019.1 hPa | 0 mm | - | 433 W/m² | - |
| 1788096367 | 28.33° C | 86% | 1019.2 hPa | 0 mm | - | 409 W/m² | - |
| 1788096062 | 27.78° C | 86% | 1019.2 hPa | 0 mm | - | 396 W/m² | - |
| 1788095761 | 27.78° C | 87% | 1019.1 hPa | 0 mm | - | 63 W/m² | - |
| 1788095455 | 27.22° C | 90% | 1019.2 hPa | 0 mm | - | 393 W/m² | - |
| 1788095150 | 27.22° C | 89% | 1018.9 hPa | 0 mm | - | 152 W/m² | - |
| 1788094845 | 26.67° C | 92% | 1019 hPa | 0 mm | - | 357 W/m² | - |
| 1788094540 | 26.67° C | 93% | 1019.1 hPa | 0 mm | - | 402 W/m² | - |
| 1788094239 | 26.11° C | 93% | 1018.8 hPa | 0 mm | - | 125 W/m² | - |
| 1788093938 | 26.67° C | 92% | 1018.8 hPa | 0 mm | - | 122 W/m² | - |
| 1788093634 | 26.67° C | 93% | 1018.8 hPa | 0 mm | - | 139 W/m² | - |
| 1788093331 | 26.67° C | 94% | 1018.7 hPa | 0 mm | - | 249 W/m² | - |
| 1788093026 | 26.11° C | 94% | 1018.4 hPa | 0 mm | - | 177 W/m² | - |
| 1788092722 | 26.11° C | 98% | 1018.5 hPa | 0 mm | - | 157 W/m² | - |
| 1788092418 | 25.56° C | 99% | 1018.3 hPa | 0 mm | - | 130 W/m² | - |
| 1788092114 | 25.56° C | 99% | 1018.3 hPa | 0 mm | - | 112 W/m² | - |
| 1788091813 | 25° C | 99% | 1018.2 hPa | 0 mm | - | 75 W/m² | - |
| 1788091508 | 25° C | 99% | 1018.4 hPa | 0 mm | - | 58 W/m² | - |
| 1788091206 | 25° C | 99% | 1018.3 hPa | 0 mm | - | 54 W/m² | - |
| 1788090901 | 24.44° C | 99% | 1018.1 hPa | 0 mm | - | 71 W/m² | - |
* Rain latest hour (hover to see other rain measurements)
** Current wind speed in m/s (hover to see current wind gust speed)